Time;durP1;ratioP1;P1;durP2;ratioP2;P2;SDS_P1;SDS_P2;PMS_P1;PMS_P2;Temp;Humidity;BMP_temperature;BMP_pressure;BME280_temperature;BME280_humidity;BME280_pressure;Samples;Min_cycle;Max_cycle;Signal;HPM_P1;HPM_P2
2021/10/27 00:01:22;;;;;;;21.63;14.65;;;;;;;;;;6276639;22;20158;-60
2021/10/27 00:03:48;;;;;;;20.90;14.63;;;;;;;;;;6276690;22;20143;-60
2021/10/27 00:06:15;;;;;;;22.00;15.52;;;;;;;;;;6277661;22;20250;-60
2021/10/27 00:08:41;;;;;;;20.77;14.48;;;;;;;;;;6277591;22;20213;-60
2021/10/27 00:11:07;;;;;;;21.35;13.40;;;;;;;;;;6276599;22;20539;-60
2021/10/27 00:13:33;;;;;;;21.95;14.13;;;;;;;;;;6276656;22;20140;-61
2021/10/27 00:16:01;;;;;;;18.95;12.57;;;;;;;;;;6276228;22;20230;-60
2021/10/27 00:18:27;;;;;;;19.20;13.55;;;;;;;;;;6276219;22;20167;-60
2021/10/27 00:20:53;;;;;;;21.83;13.18;;;;;;;;;;6276597;22;20143;-60
2021/10/27 00:23:19;;;;;;;21.25;12.90;;;;;;;;;;6276187;22;20146;-60
2021/10/27 00:25:45;;;;;;;20.27;13.40;;;;;;;;;;6276102;22;20155;-60
2021/10/27 00:28:10;;;;;;;20.77;13.25;;;;;;;;;;6275961;22;20169;-60
2021/10/27 00:30:36;;;;;;;16.70;12.85;;;;;;;;;;6276890;22;20139;-60
2021/10/27 00:33:02;;;;;;;21.15;13.65;;;;;;;;;;6278096;22;20142;-60
2021/10/27 00:35:28;;;;;;;22.60;14.32;;;;;;;;;;6278148;22;20163;-61
2021/10/27 00:37:54;;;;;;;18.42;13.93;;;;;;;;;;6278143;22;20154;-60
2021/10/27 00:40:20;;;;;;;21.05;13.98;;;;;;;;;;6278017;22;20205;-60
2021/10/27 00:42:46;;;;;;;17.67;12.70;;;;;;;;;;6278556;22;20147;-60
2021/10/27 00:45:12;;;;;;;19.95;13.18;;;;;;;;;;6278035;22;20165;-60
2021/10/27 00:47:38;;;;;;;19.92;13.30;;;;;;;;;;6277948;22;20151;-60
2021/10/27 00:50:05;;;;;;;20.17;13.20;;;;;;;;;;6277964;22;20140;-60
2021/10/27 00:52:31;;;;;;;18.40;12.18;;;;;;;;;;6278420;22;20165;-60
2021/10/27 00:54:58;;;;;;;17.42;12.98;;;;;;;;;;6278275;22;20230;-60
2021/10/27 00:57:24;;;;;;;18.27;13.10;;;;;;;;;;6277904;22;20490;-61
2021/10/27 00:59:50;;;;;;;18.67;13.27;;;;;;;;;;6277854;22;20224;-60
2021/10/27 01:02:17;;;;;;;16.35;12.55;;;;;;;;;;6277855;22;20144;-60
2021/10/27 01:04:43;;;;;;;19.83;13.57;;;;;;;;;;6277780;22;20547;-60
2021/10/27 01:07:10;;;;;;;17.88;12.25;;;;;;;;;;6277803;22;20555;-60
2021/10/27 01:09:37;;;;;;;21.40;13.02;;;;;;;;;;6277726;22;20193;-61
2021/10/27 01:12:03;;;;;;;19.25;13.15;;;;;;;;;;6278282;22;20211;-61
2021/10/27 01:14:35;;;;;;;18.02;12.82;;;;;;;;;;6277999;22;20143;-61
2021/10/27 01:17:01;;;;;;;18.25;12.27;;;;;;;;;;6278259;22;20140;-61
2021/10/27 01:19:27;;;;;;;20.83;13.38;;;;;;;;;;6278390;22;20485;-60
2021/10/27 01:21:53;;;;;;;17.42;12.70;;;;;;;;;;6278396;22;20197;-60
2021/10/27 01:24:19;;;;;;;18.83;12.60;;;;;;;;;;6278048;22;20144;-60
2021/10/27 01:26:45;;;;;;;20.65;13.27;;;;;;;;;;6277614;22;20159;-60
2021/10/27 01:29:11;;;;;;;19.67;13.07;;;;;;;;;;6277583;22;20601;-60
2021/10/27 01:31:37;;;;;;;18.63;12.18;;;;;;;;;;6277783;22;20135;-60
2021/10/27 01:34:03;;;;;;;17.88;12.02;;;;;;;;;;6277851;22;20166;-60
2021/10/27 01:36:29;;;;;;;20.02;12.93;;;;;;;;;;6277973;22;20140;-60
2021/10/27 01:38:55;;;;;;;18.63;12.45;;;;;;;;;;6278117;22;20217;-60
2021/10/27 01:41:21;;;;;;;15.43;11.68;;;;;;;;;;6278155;22;20144;-60
2021/10/27 01:43:47;;;;;;;19.70;12.07;;;;;;;;;;6277771;22;20450;-61
2021/10/27 01:46:13;;;;;;;17.80;12.43;;;;;;;;;;6278551;22;20147;-60
2021/10/27 01:48:39;;;;;;;18.73;11.38;;;;;;;;;;6278098;22;20167;-60
2021/10/27 01:51:05;;;;;;;20.63;11.70;;;;;;;;;;6278189;22;20462;-60
2021/10/27 01:53:31;;;;;;;15.50;10.70;;;;;;;;;;6278385;22;20205;-60
2021/10/27 01:55:57;;;;;;;16.83;11.88;;;;;;;;;;6278031;22;20201;-60
2021/10/27 01:58:23;;;;;;;18.27;12.10;;;;;;;;;;6278095;22;20147;-61
2021/10/27 02:00:49;;;;;;;17.75;11.90;;;;;;;;;;6277811;22;20193;-60
2021/10/27 02:03:15;;;;;;;17.58;12.30;;;;;;;;;;6277889;22;20208;-60
2021/10/27 02:05:41;;;;;;;19.98;12.48;;;;;;;;;;6278158;22;20599;-60
2021/10/27 02:08:07;;;;;;;19.48;11.90;;;;;;;;;;6278133;22;20171;-60
2021/10/27 02:10:33;;;;;;;17.90;11.55;;;;;;;;;;6277837;22;20135;-61
2021/10/27 02:12:59;;;;;;;16.42;11.45;;;;;;;;;;6277856;22;20223;-61
2021/10/27 02:15:25;;;;;;;15.27;11.65;;;;;;;;;;6278451;22;20168;-61
2021/10/27 02:17:51;;;;;;;15.45;11.82;;;;;;;;;;6277758;22;20140;-61
2021/10/27 02:20:17;;;;;;;17.55;12.05;;;;;;;;;;6277657;22;20226;-61
2021/10/27 02:22:43;;;;;;;15.48;10.52;;;;;;;;;;6277675;22;20139;-61
2021/10/27 02:25:09;;;;;;;17.08;10.98;;;;;;;;;;6277379;22;20154;-61
2021/10/27 02:27:35;;;;;;;17.20;12.45;;;;;;;;;;6278013;22;20140;-61
2021/10/27 02:30:01;;;;;;;18.58;11.45;;;;;;;;;;6277473;22;20496;-61
2021/10/27 02:32:26;;;;;;;18.63;11.65;;;;;;;;;;6278107;22;20185;-61
2021/10/27 02:34:52;;;;;;;22.25;12.57;;;;;;;;;;6277585;22;20131;-61
2021/10/27 02:37:18;;;;;;;14.63;10.20;;;;;;;;;;6277547;22;20196;-61
2021/10/27 02:39:44;;;;;;;14.13;10.70;;;;;;;;;;6277727;22;20192;-61
2021/10/27 02:42:10;;;;;;;15.43;11.52;;;;;;;;;;6277927;22;20147;-61
2021/10/27 02:44:36;;;;;;;16.60;11.13;;;;;;;;;;6277742;22;20143;-61
2021/10/27 02:47:03;;;;;;;15.68;10.73;;;;;;;;;;6277900;22;20150;-61
2021/10/27 02:49:29;;;;;;;14.70;10.00;;;;;;;;;;6277218;22;20160;-61
2021/10/27 02:51:55;;;;;;;14.13;9.60;;;;;;;;;;6277529;22;20147;-61
2021/10/27 02:54:21;;;;;;;13.70;10.10;;;;;;;;;;6277412;22;20135;-61
2021/10/27 02:56:47;;;;;;;15.90;9.98;;;;;;;;;;6277396;22;20217;-61
2021/10/27 02:59:13;;;;;;;12.27;9.65;;;;;;;;;;6277830;22;20226;-61
2021/10/27 03:01:39;;;;;;;18.77;10.40;;;;;;;;;;6277357;22;20641;-61
2021/10/27 03:04:05;;;;;;;16.45;10.48;;;;;;;;;;6277324;22;20175;-61
2021/10/27 03:06:30;;;;;;;16.15;10.30;;;;;;;;;;6277270;22;20175;-61
2021/10/27 03:08:56;;;;;;;13.77;10.30;;;;;;;;;;6277376;22;20164;-61
2021/10/27 03:11:22;;;;;;;17.80;9.95;;;;;;;;;;6277597;22;20431;-61
2021/10/27 03:13:48;;;;;;;16.92;10.07;;;;;;;;;;6277203;22;20139;-61
2021/10/27 03:16:14;;;;;;;14.90;9.63;;;;;;;;;;6277561;22;20151;-61
2021/10/27 03:18:40;;;;;;;16.52;9.95;;;;;;;;;;6277361;22;20193;-61
2021/10/27 03:21:06;;;;;;;12.98;9.85;;;;;;;;;;6277827;22;20155;-61
2021/10/27 03:23:32;;;;;;;16.63;10.93;;;;;;;;;;6277209;22;20448;-61
2021/10/27 03:25:58;;;;;;;17.45;9.95;;;;;;;;;;6277016;22;20159;-61
2021/10/27 03:28:24;;;;;;;15.45;10.25;;;;;;;;;;6277417;22;20186;-61
2021/10/27 03:30:50;;;;;;;16.90;10.32;;;;;;;;;;6276767;22;20140;-61
2021/10/27 03:33:16;;;;;;;17.92;10.02;;;;;;;;;;6277211;22;20150;-61
2021/10/27 03:35:42;;;;;;;15.50;9.98;;;;;;;;;;6277091;22;20162;-61
2021/10/27 03:38:08;;;;;;;14.48;10.23;;;;;;;;;;6276691;22;20174;-61
2021/10/27 03:40:34;;;;;;;16.02;11.38;;;;;;;;;;6276803;22;20160;-61
2021/10/27 03:43:00;;;;;;;16.98;11.00;;;;;;;;;;6276972;22;20144;-61
2021/10/27 03:45:26;;;;;;;18.00;11.52;;;;;;;;;;6276817;22;20193;-61
2021/10/27 03:47:52;;;;;;;15.75;10.15;;;;;;;;;;6276913;22;20579;-61
2021/10/27 03:50:18;;;;;;;20.10;10.95;;;;;;;;;;6276611;22;20166;-61
2021/10/27 03:52:44;;;;;;;17.25;11.45;;;;;;;;;;6277054;22;20143;-61
2021/10/27 03:55:11;;;;;;;22.30;12.00;;;;;;;;;;6276824;22;20214;-61
2021/10/27 03:57:37;;;;;;;17.40;11.27;;;;;;;;;;6276952;22;20154;-61
2021/10/27 04:00:05;;;;;;;18.38;11.40;;;;;;;;;;6276985;22;20167;-61
2021/10/27 04:02:31;;;;;;;16.23;10.82;;;;;;;;;;6276740;22;20150;-61
2021/10/27 04:04:57;;;;;;;16.02;11.50;;;;;;;;;;6276598;22;20139;-61
2021/10/27 04:07:23;;;;;;;21.23;11.35;;;;;;;;;;6276245;22;20221;-61
2021/10/27 04:09:49;;;;;;;21.02;11.80;;;;;;;;;;6276188;22;20163;-61
2021/10/27 04:12:15;;;;;;;13.68;9.85;;;;;;;;;;6276132;22;20222;-61
2021/10/27 04:14:41;;;;;;;18.27;11.13;;;;;;;;;;6276307;22;20167;-61
2021/10/27 04:17:07;;;;;;;18.55;11.32;;;;;;;;;;6276086;22;20159;-61
2021/10/27 04:19:34;;;;;;;17.83;10.95;;;;;;;;;;6276574;22;20144;-61
2021/10/27 04:22:00;;;;;;;21.10;11.18;;;;;;;;;;6276388;22;20144;-61
2021/10/27 04:24:26;;;;;;;14.60;10.25;;;;;;;;;;6276540;22;20143;-61
2021/10/27 04:26:53;;;;;;;16.20;11.13;;;;;;;;;;6276065;22;20230;-61
2021/10/27 04:29:19;;;;;;;14.80;10.43;;;;;;;;;;6275974;22;20662;-61
2021/10/27 04:31:45;;;;;;;20.13;11.32;;;;;;;;;;6276906;22;20140;-61
2021/10/27 04:34:11;;;;;;;16.02;11.25;;;;;;;;;;6276439;22;20168;-61
2021/10/27 04:36:37;;;;;;;16.40;11.50;;;;;;;;;;6276087;22;20435;-61
2021/10/27 04:39:04;;;;;;;14.98;11.07;;;;;;;;;;6276324;22;20146;-61
2021/10/27 04:41:30;;;;;;;17.80;10.93;;;;;;;;;;6276788;22;20564;-61
2021/10/27 04:43:56;;;;;;;17.60;11.15;;;;;;;;;;6276262;22;20148;-61
2021/10/27 04:46:23;;;;;;;16.52;11.57;;;;;;;;;;6276541;22;20174;-61
2021/10/27 04:48:48;;;;;;;19.83;11.75;;;;;;;;;;6277136;22;20195;-60
2021/10/27 04:51:14;;;;;;;19.67;11.27;;;;;;;;;;6276246;22;20190;-60
2021/10/27 04:53:40;;;;;;;18.05;11.48;;;;;;;;;;6276588;22;20493;-59
2021/10/27 04:56:06;;;;;;;19.85;11.90;;;;;;;;;;6275922;22;20435;-62
2021/10/27 04:58:32;;;;;;;17.42;10.85;;;;;;;;;;6276330;22;20148;-60
2021/10/27 05:04:02;;;;;;;16.70;11.30;;;;;;;;;;6276565;22;20158;-62
2021/10/27 05:06:28;;;;;;;16.70;11.43;;;;;;;;;;6276459;22;20203;-62
2021/10/27 05:08:54;;;;;;;19.83;10.85;;;;;;;;;;6276055;22;20163;-62
2021/10/27 05:11:20;;;;;;;19.02;11.05;;;;;;;;;;6276512;22;20155;-61
2021/10/27 05:13:46;;;;;;;20.15;10.52;;;;;;;;;;6276002;22;20209;-62
2021/10/27 05:16:12;;;;;;;13.85;10.68;;;;;;;;;;6275756;22;20136;-62
2021/10/27 05:18:38;;;;;;;14.88;10.65;;;;;;;;;;6277313;22;20197;-62
2021/10/27 05:21:04;;;;;;;17.55;11.00;;;;;;;;;;6277918;22;20147;-62
2021/10/27 05:23:30;;;;;;;18.67;11.25;;;;;;;;;;6278084;22;20143;-61
2021/10/27 05:25:56;;;;;;;17.83;11.90;;;;;;;;;;6277517;22;20705;-61
2021/10/27 05:28:22;;;;;;;15.15;10.55;;;;;;;;;;6277041;22;20238;-60
2021/10/27 05:30:49;;;;;;;17.25;11.05;;;;;;;;;;6277792;22;20193;-61
2021/10/27 05:33:15;;;;;;;17.48;10.10;;;;;;;;;;6277873;22;20177;-61
2021/10/27 05:35:41;;;;;;;16.30;11.00;;;;;;;;;;6277377;22;20140;-61
2021/10/27 05:38:07;;;;;;;15.38;11.52;;;;;;;;;;6277543;22;20148;-61
2021/10/27 05:40:34;;;;;;;17.17;11.23;;;;;;;;;;6277403;22;20140;-61
2021/10/27 05:43:07;;;;;;;14.15;10.52;;;;;;;;;;6277491;22;20182;-61
2021/10/27 05:45:33;;;;;;;19.63;11.65;;;;;;;;;;6277842;22;20131;-61
2021/10/27 05:48:01;;;;;;;15.43;11.15;;;;;;;;;;6277504;22;20521;-61
2021/10/27 05:50:33;;;;;;;17.42;11.38;;;;;;;;;;6277660;22;20440;-61
2021/10/27 05:55:44;;;;;;;14.60;10.77;;;;;;;;;;6277862;22;20486;-61
2021/10/27 05:58:12;;;;;;;16.85;10.70;;;;;;;;;;6277913;22;20143;-61
2021/10/27 06:00:41;;;;;;;15.88;10.98;;;;;;;;;;6277926;22;20444;-62
2021/10/27 06:03:07;;;;;;;15.18;10.88;;;;;;;;;;6278300;22;20150;-61
2021/10/27 06:05:33;;;;;;;19.90;11.68;;;;;;;;;;6278560;22;20198;-61
2021/10/27 06:07:59;;;;;;;17.25;11.52;;;;;;;;;;6277767;22;20159;-61
2021/10/27 06:10:26;;;;;;;17.40;11.02;;;;;;;;;;6278079;22;20150;-61
2021/10/27 06:12:56;;;;;;;15.10;10.77;;;;;;;;;;6278311;22;20140;-61
2021/10/27 06:15:23;;;;;;;18.20;12.10;;;;;;;;;;6278409;22;20397;-61
2021/10/27 06:17:49;;;;;;;14.32;10.80;;;;;;;;;;6277694;22;20204;-61
2021/10/27 06:20:15;;;;;;;15.38;11.13;;;;;;;;;;6277565;22;20147;-60
2021/10/27 06:22:41;;;;;;;13.73;11.10;;;;;;;;;;6277590;22;20151;-61
2021/10/27 06:25:09;;;;;;;14.10;10.80;;;;;;;;;;6277333;22;20524;-62
2021/10/27 06:27:35;;;;;;;15.90;11.25;;;;;;;;;;6277597;22;20171;-61
2021/10/27 06:30:08;;;;;;;15.52;11.20;;;;;;;;;;6277344;22;20172;-61
2021/10/27 06:32:42;;;;;;;17.20;11.48;;;;;;;;;;6277471;22;20128;-62
2021/10/27 06:35:14;;;;;;;15.60;10.82;;;;;;;;;;6277715;22;20135;-61
2021/10/27 06:37:59;;;;;;;13.32;9.63;;;;;;;;;;6277437;22;20139;-61
2021/10/27 06:46:00;;;;;;;17.15;10.90;;;;;;;;;;6277134;22;20167;-61
2021/10/27 06:46:26;;;;;;;15.00;10.02;;;;;;;;;;6276701;22;20136;-61
2021/10/27 06:48:52;;;;;;;13.57;10.43;;;;;;;;;;6276644;22;20601;-60
2021/10/27 06:51:18;;;;;;;19.83;11.25;;;;;;;;;;6277223;22;20156;-61
2021/10/27 06:53:44;;;;;;;15.15;10.95;;;;;;;;;;6276587;22;20139;-60
2021/10/27 06:56:14;;;;;;;14.23;10.55;;;;;;;;;;6276964;22;20497;-61
2021/10/27 07:06:41;;;;;;;14.93;10.80;;;;;;;;;;6277097;22;20181;-60
2021/10/27 07:17:21;;;;;;;18.42;11.00;;;;;;;;;;6276987;22;20139;-59
2021/10/27 07:19:47;;;;;;;17.25;11.80;;;;;;;;;;6276849;22;20143;-62
2021/10/27 07:22:14;;;;;;;15.90;11.20;;;;;;;;;;6276960;22;20159;-59
2021/10/27 07:24:40;;;;;;;16.42;12.02;;;;;;;;;;6277324;22;20143;-60
2021/10/27 07:27:07;;;;;;;13.77;10.15;;;;;;;;;;6277019;22;20238;-60
2021/10/27 07:29:34;;;;;;;17.00;11.57;;;;;;;;;;6277123;22;20245;-60
2021/10/27 07:32:01;;;;;;;12.75;9.98;;;;;;;;;;6277526;22;20223;-60
2021/10/27 07:34:37;;;;;;;16.67;10.95;;;;;;;;;;6277479;22;20158;-59
2021/10/27 07:39:59;;;;;;;17.90;11.43;;;;;;;;;;6280552;22;20146;-60
2021/10/27 07:42:25;;;;;;;14.27;10.48;;;;;;;;;;6281105;22;20158;-61
2021/10/27 07:44:51;;;;;;;15.07;10.90;;;;;;;;;;6280622;22;20223;-61
2021/10/27 07:47:17;;;;;;;13.95;10.25;;;;;;;;;;6279893;22;20159;-61
2021/10/27 07:49:43;;;;;;;15.13;10.60;;;;;;;;;;6280660;22;20159;-61
2021/10/27 07:52:09;;;;;;;14.15;10.60;;;;;;;;;;6284349;22;20151;-62
2021/10/27 07:54:36;;;;;;;15.55;10.63;;;;;;;;;;6288658;22;20191;-62
2021/10/27 07:57:02;;;;;;;14.82;9.70;;;;;;;;;;6287991;22;20437;-61
2021/10/27 07:59:29;;;;;;;16.38;10.70;;;;;;;;;;6287791;22;20140;-62
2021/10/27 08:01:56;;;;;;;15.20;10.13;;;;;;;;;;6287572;22;20147;-62
2021/10/27 08:04:22;;;;;;;13.70;10.68;;;;;;;;;;6285107;22;20147;-62
2021/10/27 08:06:48;;;;;;;16.73;9.77;;;;;;;;;;6284189;22;20452;-61
2021/10/27 08:09:15;;;;;;;14.32;9.90;;;;;;;;;;6283621;22;20171;-62
2021/10/27 08:11:41;;;;;;;16.10;9.85;;;;;;;;;;6292930;22;20140;-61
2021/10/27 08:14:07;;;;;;;15.05;10.15;;;;;;;;;;6289260;22;20135;-61
2021/10/27 08:16:33;;;;;;;13.57;9.38;;;;;;;;;;6281398;22;20166;-61
2021/10/27 08:18:59;;;;;;;13.45;9.63;;;;;;;;;;6276515;22;20189;-61
2021/10/27 08:21:25;;;;;;;13.15;9.90;;;;;;;;;;6276312;22;20421;-61
2021/10/27 08:23:52;;;;;;;14.05;10.57;;;;;;;;;;6276228;22;20140;-61
2021/10/27 08:26:21;;;;;;;14.32;9.63;;;;;;;;;;6276011;22;20193;-61
2021/10/27 08:28:58;;;;;;;13.32;9.52;;;;;;;;;;6276170;22;20610;-62
2021/10/27 08:34:04;;;;;;;13.02;9.13;;;;;;;;;;6276522;22;20419;-61
2021/10/27 08:36:30;;;;;;;11.48;8.85;;;;;;;;;;6276058;22;20562;-61
2021/10/27 08:38:57;;;;;;;16.05;9.35;;;;;;;;;;6276219;22;20140;-61
2021/10/27 08:41:24;;;;;;;13.10;9.90;;;;;;;;;;6276145;22;20420;-61
2021/10/27 08:43:50;;;;;;;15.48;9.10;;;;;;;;;;6276051;22;20150;-61
2021/10/27 08:46:18;;;;;;;12.68;8.70;;;;;;;;;;6275820;22;20208;-61
2021/10/27 08:48:45;;;;;;;16.80;9.95;;;;;;;;;;6275840;22;20224;-62
2021/10/27 08:51:12;;;;;;;15.27;9.68;;;;;;;;;;6276060;22;20150;-61
2021/10/27 08:53:38;;;;;;;13.50;8.82;;;;;;;;;;6278015;22;20147;-62
2021/10/27 08:56:06;;;;;;;10.57;7.07;;;;;;;;;;6277869;22;20483;-62
2021/10/27 08:58:40;;;;;;;11.38;7.95;;;;;;;;;;6278333;22;20258;-61
2021/10/27 09:01:25;;;;;;;12.98;8.32;;;;;;;;;;6278242;22;20128;-61
2021/10/27 09:04:21;;;;;;;11.65;8.45;;;;;;;;;;6278094;22;20357;-61
2021/10/27 09:07:24;;;;;;;11.50;8.45;;;;;;;;;;6278148;22;20151;-61
2021/10/27 09:35:34;;;;;;;10.15;7.35;;;;;;;;;;6278382;22;20217;-61
2021/10/27 09:41:19;;;;;;;9.20;6.97;;;;;;;;;;6242241;22;20152;-62
2021/10/27 10:05:40;;;;;;;10.98;5.93;;;;;;;;;;6277542;22;20197;-62
2021/10/27 10:08:06;;;;;;;7.55;5.93;;;;;;;;;;6277335;22;20167;-63
2021/10/27 10:10:32;;;;;;;7.72;5.70;;;;;;;;;;6277625;22;20427;-62
2021/10/27 10:12:59;;;;;;;8.05;6.15;;;;;;;;;;6277808;22;20136;-62
2021/10/27 10:15:28;;;;;;;7.75;6.28;;;;;;;;;;6277189;22;20197;-63
2021/10/27 10:17:54;;;;;;;7.60;6.03;;;;;;;;;;6277481;22;20144;-63
2021/10/27 10:20:21;;;;;;;8.30;6.28;;;;;;;;;;6277311;22;20144;-62
2021/10/27 10:22:47;;;;;;;8.85;6.72;;;;;;;;;;6277164;22;20214;-62
2021/10/27 10:25:16;;;;;;;8.20;6.65;;;;;;;;;;6277158;22;20147;-63
2021/10/27 10:27:43;;;;;;;7.10;5.63;;;;;;;;;;6277147;22;20517;-63
2021/10/27 10:30:27;;;;;;;7.72;5.70;;;;;;;;;;6276477;22;20522;-63
2021/10/27 10:33:12;;;;;;;8.23;5.88;;;;;;;;;;6277198;22;20147;-63
2021/10/27 10:35:41;;;;;;;8.27;6.22;;;;;;;;;;6277030;22;20147;-63
2021/10/27 10:38:27;;;;;;;6.95;5.53;;;;;;;;;;6277155;22;20221;-62
2021/10/27 10:44:01;;;;;;;6.85;5.65;;;;;;;;;;6276944;22;20517;-62
2021/10/27 11:15:14;;;;;;;9.55;5.63;;;;;;;;;;6276455;22;20223;-63
2021/10/27 11:23:04;;;;;;;6.05;5.35;;;;;;;;;;6276267;22;20205;-62
2021/10/27 11:25:57;;;;;;;6.75;4.95;;;;;;;;;;6275966;22;20173;-62
2021/10/27 11:39:50;;;;;;;5.82;5.03;;;;;;;;;;6276281;22;20196;-63
2021/10/27 11:42:23;;;;;;;5.50;4.85;;;;;;;;;;6276436;22;20485;-63
2021/10/27 11:44:53;;;;;;;6.47;5.57;;;;;;;;;;6276469;22;20593;-63
2021/10/27 11:47:33;;;;;;;8.35;5.18;;;;;;;;;;6276720;22;20151;-63
2021/10/27 11:49:59;;;;;;;5.38;4.88;;;;;;;;;;6276677;22;20256;-63
2021/10/27 11:52:32;;;;;;;6.38;4.90;;;;;;;;;;6276166;22;20567;-63
2021/10/27 11:54:58;;;;;;;7.63;5.25;;;;;;;;;;6276918;22;20209;-63
2021/10/27 11:57:28;;;;;;;5.82;4.88;;;;;;;;;;6276300;22;20590;-63
2021/10/27 11:59:54;;;;;;;8.85;5.00;;;;;;;;;;6276914;22;20499;-63
2021/10/27 12:02:21;;;;;;;6.90;5.00;;;;;;;;;;6276645;22;20139;-64
2021/10/27 12:04:47;;;;;;;6.30;4.65;;;;;;;;;;6277263;22;20154;-64
2021/10/27 12:07:31;;;;;;;6.38;4.70;;;;;;;;;;6276864;22;20218;-63
2021/10/27 12:10:17;;;;;;;6.35;4.35;;;;;;;;;;6276933;22;20166;-64
2021/10/27 12:13:01;;;;;;;5.97;4.00;;;;;;;;;;6276996;22;20150;-63
2021/10/27 12:16:01;;;;;;;5.60;3.80;;;;;;;;;;6276892;22;20210;-63
2021/10/27 12:18:27;;;;;;;4.75;3.75;;;;;;;;;;6276366;22;20563;-63
2021/10/27 12:20:54;;;;;;;6.82;4.50;;;;;;;;;;6276081;22;20150;-63
2021/10/27 12:23:21;;;;;;;5.47;4.90;;;;;;;;;;6276292;22;20147;-63
2021/10/27 12:25:47;;;;;;;7.70;4.65;;;;;;;;;;6276552;22;20216;-63
2021/10/27 12:28:29;;;;;;;5.63;4.53;;;;;;;;;;6278341;22;20547;-63
2021/10/27 12:30:55;;;;;;;5.00;4.13;;;;;;;;;;6278521;22;20208;-63
2021/10/27 12:33:40;;;;;;;5.93;3.97;;;;;;;;;;6278360;22;20140;-63
2021/10/27 12:36:27;;;;;;;4.82;4.15;;;;;;;;;;6278368;22;20139;-63
2021/10/27 12:39:12;;;;;;;6.15;4.15;;;;;;;;;;6278154;22;20539;-62
2021/10/27 12:41:38;;;;;;;7.70;4.20;;;;;;;;;;6278329;22;20147;-62
2021/10/27 12:44:17;;;;;;;4.72;4.20;;;;;;;;;;6277821;22;20197;-62
2021/10/27 12:46:43;;;;;;;6.10;3.83;;;;;;;;;;6278158;22;20519;-62
2021/10/27 12:49:17;;;;;;;4.85;4.35;;;;;;;;;;6277699;22;20198;-62
2021/10/27 12:51:43;;;;;;;5.90;4.22;;;;;;;;;;6277461;22;20137;-64
2021/10/27 12:54:09;;;;;;;5.35;4.60;;;;;;;;;;6278257;22;20190;-62
2021/10/27 12:56:35;;;;;;;5.90;4.20;;;;;;;;;;6277647;22;20177;-62
2021/10/27 12:59:05;;;;;;;5.82;4.50;;;;;;;;;;6277859;22;20147;-62
2021/10/27 13:01:42;;;;;;;5.80;4.60;;;;;;;;;;6277497;22;20139;-62
2021/10/27 13:07:23;;;;;;;5.10;4.60;;;;;;;;;;6287876;22;20143;-63
2021/10/27 13:12:27;;;;;;;6.38;4.85;;;;;;;;;;6287967;22;20238;-63
2021/10/27 13:20:16;;;;;;;6.18;4.57;;;;;;;;;;6277679;22;20204;-63
2021/10/27 13:22:49;;;;;;;5.38;4.60;;;;;;;;;;6277433;22;20558;-62
2021/10/27 13:30:51;;;;;;;5.25;4.05;;;;;;;;;;6278000;22;20219;-63
2021/10/27 13:33:18;;;;;;;5.15;4.00;;;;;;;;;;6277797;22;20487;-63
2021/10/27 13:35:44;;;;;;;7.13;4.82;;;;;;;;;;6277714;22;20150;-63
2021/10/27 13:38:11;;;;;;;6.40;4.22;;;;;;;;;;6276997;22;20140;-63
2021/10/27 13:40:41;;;;;;;4.78;4.30;;;;;;;;;;6277432;22;20181;-62
2021/10/27 13:43:11;;;;;;;4.75;3.88;;;;;;;;;;6277553;22;20135;-63
2021/10/27 13:45:57;;;;;;;5.38;4.20;;;;;;;;;;6277993;22;20138;-63
2021/10/27 13:48:39;;;;;;;5.32;3.75;;;;;;;;;;6277694;22;20242;-63
2021/10/27 14:07:49;;;;;;;4.47;4.07;;;;;;;;;;6277516;22;20566;-62
2021/10/27 14:10:26;;;;;;;4.60;4.00;;;;;;;;;;6277913;22;20155;-62
2021/10/27 14:12:57;;;;;;;10.57;4.65;;;;;;;;;;6277786;22;20513;-63
2021/10/27 14:18:26;;;;;;;4.72;3.78;;;;;;;;;;6288052;22;20580;-62
2021/10/27 14:40:20;;;;;;;7.25;3.72;;;;;;;;;;6277245;22;20221;-64
2021/10/27 15:20:54;;;;;;;7.63;4.38;;;;;;;;;;6276620;22;20143;-63
2021/10/27 15:27:42;;;;;;;8.48;4.68;;;;;;;;;;6282975;22;20173;-63
2021/10/27 15:29:10;;;;;;;6.20;4.72;;;;;;;;;;6276169;22;20179;-63
2021/10/27 15:31:53;;;;;;;5.05;4.55;;;;;;;;;;6276250;22;20144;-63
2021/10/27 15:40:19;;;;;;;8.80;4.78;;;;;;;;;;6287000;22;20201;-63
2021/10/27 15:43:19;;;;;;;6.50;5.13;;;;;;;;;;6276565;22;20614;-63
2021/10/27 15:50:57;;;;;;;6.53;5.25;;;;;;;;;;6276631;22;20217;-63
2021/10/27 15:53:23;;;;;;;6.55;5.38;;;;;;;;;;6277271;22;20128;-63
2021/10/27 15:55:49;;;;;;;7.70;4.70;;;;;;;;;;6277123;22;20150;-63
2021/10/27 15:58:15;;;;;;;6.63;5.35;;;;;;;;;;6276680;22;20551;-63
2021/10/27 16:00:41;;;;;;;5.80;5.13;;;;;;;;;;6276014;22;20142;-63
2021/10/27 16:03:08;;;;;;;6.15;5.03;;;;;;;;;;6277253;22;20139;-63
2021/10/27 16:05:42;;;;;;;7.93;5.32;;;;;;;;;;6277477;22;20196;-64
2021/10/27 16:08:08;;;;;;;4.65;4.20;;;;;;;;;;6276777;22;20222;-63
2021/10/27 16:10:35;;;;;;;7.35;5.00;;;;;;;;;;6276496;22;20220;-64
2021/10/27 16:13:02;;;;;;;5.75;5.15;;;;;;;;;;6276890;22;20144;-63
2021/10/27 16:15:39;;;;;;;7.70;4.45;;;;;;;;;;6277319;22;20173;-63
2021/10/27 16:18:06;;;;;;;6.35;5.45;;;;;;;;;;6277202;22;20493;-63
2021/10/27 16:20:32;;;;;;;5.65;4.75;;;;;;;;;;6277313;22;20135;-63
2021/10/27 16:22:59;;;;;;;6.18;4.70;;;;;;;;;;6276772;22;20140;-63
2021/10/27 16:25:25;;;;;;;6.70;4.55;;;;;;;;;;6276758;22;20462;-63
2021/10/27 16:27:51;;;;;;;7.47;4.60;;;;;;;;;;6277032;22;20532;-63
2021/10/27 16:30:17;;;;;;;5.65;4.13;;;;;;;;;;6276654;22;20202;-63
2021/10/27 16:32:43;;;;;;;6.57;4.82;;;;;;;;;;6276406;22;20139;-63
2021/10/27 16:35:10;;;;;;;5.72;4.45;;;;;;;;;;6276688;22;20211;-63
2021/10/27 16:37:36;;;;;;;5.93;4.43;;;;;;;;;;6276346;22;20547;-63
2021/10/27 16:40:04;;;;;;;6.30;4.15;;;;;;;;;;6275981;22;20151;-63
2021/10/27 16:42:31;;;;;;;7.45;5.38;;;;;;;;;;6276660;22;20437;-62
2021/10/27 16:44:57;;;;;;;6.75;5.25;;;;;;;;;;6276551;22;20441;-64
2021/10/27 16:47:23;;;;;;;6.10;5.38;;;;;;;;;;6276338;22;20435;-63
2021/10/27 16:49:49;;;;;;;6.25;5.20;;;;;;;;;;6276116;22;20252;-63
2021/10/27 16:52:16;;;;;;;8.48;5.88;;;;;;;;;;6276202;22;20166;-64
2021/10/27 16:54:42;;;;;;;6.32;5.70;;;;;;;;;;6276049;22;20438;-63
2021/10/27 16:57:08;;;;;;;7.13;5.30;;;;;;;;;;6276175;22;20135;-64
2021/10/27 16:59:34;;;;;;;6.47;5.25;;;;;;;;;;6275667;22;20140;-63
2021/10/27 17:02:00;;;;;;;7.05;5.18;;;;;;;;;;6276295;22;20147;-62
2021/10/27 17:04:26;;;;;;;5.50;5.00;;;;;;;;;;6275790;22;20231;-63
2021/10/27 17:06:52;;;;;;;5.70;5.00;;;;;;;;;;6275840;22;20139;-63
2021/10/27 17:09:18;;;;;;;9.70;5.63;;;;;;;;;;6275889;22;20167;-63
2021/10/27 17:11:44;;;;;;;6.38;4.82;;;;;;;;;;6275835;22;20142;-63
2021/10/27 17:14:10;;;;;;;7.05;5.03;;;;;;;;;;6277644;22;20139;-63
2021/10/27 17:16:36;;;;;;;7.80;5.25;;;;;;;;;;6277725;22;20140;-63
2021/10/27 17:19:02;;;;;;;7.47;5.03;;;;;;;;;;6277607;22;20566;-63
2021/10/27 17:21:29;;;;;;;10.52;4.78;;;;;;;;;;6277699;22;20144;-63
2021/10/27 17:23:59;;;;;;;5.97;4.93;;;;;;;;;;6277364;22;20607;-63
2021/10/27 17:26:25;;;;;;;7.13;4.75;;;;;;;;;;6277604;22;20232;-62
2021/10/27 17:28:51;;;;;;;7.28;4.88;;;;;;;;;;6277891;22;20175;-61
2021/10/27 17:31:17;;;;;;;6.95;4.72;;;;;;;;;;6277802;22;20446;-62
2021/10/27 17:33:43;;;;;;;7.07;5.03;;;;;;;;;;6277926;22;20151;-62
2021/10/27 17:36:10;;;;;;;7.55;4.93;;;;;;;;;;6277885;22;20198;-61
2021/10/27 17:38:37;;;;;;;6.18;4.82;;;;;;;;;;6277961;22;20150;-61
2021/10/27 17:41:03;;;;;;;6.90;4.43;;;;;;;;;;6277608;22;20140;-62
2021/10/27 17:43:31;;;;;;;8.38;4.43;;;;;;;;;;6277570;22;20147;-60
2021/10/27 17:45:57;;;;;;;5.07;4.38;;;;;;;;;;6277828;22;20151;-61
2021/10/27 17:48:33;;;;;;;5.70;4.30;;;;;;;;;;6277705;22;20171;-62
2021/10/27 17:58:39;;;;;;;7.60;4.35;;;;;;;;;;6277546;22;20193;-61
2021/10/27 18:01:06;;;;;;;4.32;3.63;;;;;;;;;;6277875;22;20559;-60
2021/10/27 18:03:33;;;;;;;7.85;4.20;;;;;;;;;;6277644;22;20166;-60
2021/10/27 18:06:00;;;;;;;6.57;3.88;;;;;;;;;;6277808;22;20144;-62
2021/10/27 18:08:26;;;;;;;14.93;4.57;;;;;;;;;;6278105;22;20439;-62
2021/10/27 18:10:55;;;;;;;8.20;4.32;;;;;;;;;;6277649;22;20146;-62
2021/10/27 18:13:24;;;;;;;6.32;4.43;;;;;;;;;;6277846;22;20146;-62
2021/10/27 18:15:54;;;;;;;5.82;4.32;;;;;;;;;;6277996;22;20176;-62
2021/10/27 18:18:28;;;;;;;5.55;4.10;;;;;;;;;;6278365;22;20140;-62
2021/10/27 18:20:54;;;;;;;6.07;3.72;;;;;;;;;;6278021;22;20132;-62
2021/10/27 18:23:28;;;;;;;5.60;4.53;;;;;;;;;;6278018;22;20218;-62
2021/10/27 18:36:16;;;;;;;5.10;4.18;;;;;;;;;;6278236;22;20179;-62
2021/10/27 18:37:10;;;;;;;6.88;4.10;;;;;;;;;;6277375;22;20478;-62
2021/10/27 18:42:23;;;;;;;4.95;3.97;;;;;;;;;;6277198;22;20142;-62
2021/10/27 18:44:49;;;;;;;6.43;4.32;;;;;;;;;;6277354;22;20151;-62
2021/10/27 18:47:16;;;;;;;6.20;4.22;;;;;;;;;;6276955;22;20143;-62
2021/10/27 18:49:42;;;;;;;5.03;3.90;;;;;;;;;;6277061;22;20225;-62
2021/10/27 18:52:17;;;;;;;4.38;3.97;;;;;;;;;;6277470;22;20155;-62